sensor_id;sensor_type;location;lat;lon;timestamp;P1;durP1;ratioP1;P2;durP2;ratioP2
18853;SDS011;9556;49.374;19.446;2023-05-07T00:01:43;11.45;;;7.90;;
18853;SDS011;9556;49.374;19.446;2023-05-07T00:04:11;10.07;;;7.43;;
18853;SDS011;9556;49.374;19.446;2023-05-07T00:06:38;11.85;;;8.60;;
18853;SDS011;9556;49.374;19.446;2023-05-07T00:09:05;11.63;;;8.50;;
18853;SDS011;9556;49.374;19.446;2023-05-07T00:11:33;11.70;;;8.27;;
18853;SDS011;9556;49.374;19.446;2023-05-07T00:14:00;10.85;;;8.52;;
18853;SDS011;9556;49.374;19.446;2023-05-07T00:16:27;12.02;;;8.48;;
18853;SDS011;9556;49.374;19.446;2023-05-07T00:18:55;10.38;;;7.55;;
18853;SDS011;9556;49.374;19.446;2023-05-07T00:21:23;9.88;;;7.55;;
18853;SDS011;9556;49.374;19.446;2023-05-07T00:23:51;9.18;;;7.03;;
18853;SDS011;9556;49.374;19.446;2023-05-07T00:26:18;9.65;;;7.65;;
18853;SDS011;9556;49.374;19.446;2023-05-07T00:28:46;11.70;;;8.32;;
18853;SDS011;9556;49.374;19.446;2023-05-07T00:31:13;9.77;;;7.50;;
18853;SDS011;9556;49.374;19.446;2023-05-07T00:33:40;8.90;;;7.13;;
18853;SDS011;9556;49.374;19.446;2023-05-07T00:36:09;9.15;;;7.15;;
18853;SDS011;9556;49.374;19.446;2023-05-07T00:38:36;11.07;;;7.63;;
18853;SDS011;9556;49.374;19.446;2023-05-07T00:41:03;9.75;;;7.15;;
18853;SDS011;9556;49.374;19.446;2023-05-07T00:43:30;9.40;;;7.47;;
18853;SDS011;9556;49.374;19.446;2023-05-07T00:45:58;11.68;;;7.47;;
18853;SDS011;9556;49.374;19.446;2023-05-07T00:48:25;10.85;;;8.05;;
18853;SDS011;9556;49.374;19.446;2023-05-07T00:50:52;10.60;;;7.60;;
18853;SDS011;9556;49.374;19.446;2023-05-07T00:53:21;9.05;;;7.13;;
18853;SDS011;9556;49.374;19.446;2023-05-07T00:55:48;9.50;;;7.15;;
18853;SDS011;9556;49.374;19.446;2023-05-07T00:58:16;10.20;;;7.20;;
18853;SDS011;9556;49.374;19.446;2023-05-07T01:00:43;9.70;;;7.20;;
18853;SDS011;9556;49.374;19.446;2023-05-07T01:03:11;9.10;;;6.78;;
18853;SDS011;9556;49.374;19.446;2023-05-07T01:05:38;10.43;;;8.00;;
18853;SDS011;9556;49.374;19.446;2023-05-07T01:08:06;9.68;;;7.13;;
18853;SDS011;9556;49.374;19.446;2023-05-07T01:10:35;9.65;;;7.72;;
18853;SDS011;9556;49.374;19.446;2023-05-07T01:13:02;10.15;;;7.78;;
18853;SDS011;9556;49.374;19.446;2023-05-07T01:15:30;10.52;;;7.90;;
18853;SDS011;9556;49.374;19.446;2023-05-07T01:17:57;10.18;;;7.95;;
18853;SDS011;9556;49.374;19.446;2023-05-07T01:20:24;9.35;;;7.53;;
18853;SDS011;9556;49.374;19.446;2023-05-07T01:22:53;11.07;;;7.93;;
18853;SDS011;9556;49.374;19.446;2023-05-07T01:25:21;11.50;;;8.13;;
18853;SDS011;9556;49.374;19.446;2023-05-07T01:27:48;9.55;;;7.75;;
18853;SDS011;9556;49.374;19.446;2023-05-07T01:30:16;9.88;;;7.90;;
18853;SDS011;9556;49.374;19.446;2023-05-07T01:32:45;9.75;;;7.80;;
18853;SDS011;9556;49.374;19.446;2023-05-07T01:35:17;10.13;;;7.97;;
18853;SDS011;9556;49.374;19.446;2023-05-07T01:37:45;12.02;;;7.72;;
18853;SDS011;9556;49.374;19.446;2023-05-07T01:40:14;12.85;;;8.43;;
18853;SDS011;9556;49.374;19.446;2023-05-07T01:42:41;10.77;;;8.07;;
18853;SDS011;9556;49.374;19.446;2023-05-07T01:45:10;9.10;;;7.45;;
18853;SDS011;9556;49.374;19.446;2023-05-07T01:47:37;10.40;;;7.75;;
18853;SDS011;9556;49.374;19.446;2023-05-07T01:50:05;10.85;;;8.50;;
18853;SDS011;9556;49.374;19.446;2023-05-07T01:52:33;9.23;;;7.63;;
18853;SDS011;9556;49.374;19.446;2023-05-07T01:55:00;10.02;;;8.05;;
18853;SDS011;9556;49.374;19.446;2023-05-07T01:57:29;11.95;;;8.10;;
18853;SDS011;9556;49.374;19.446;2023-05-07T01:59:56;11.63;;;8.70;;
18853;SDS011;9556;49.374;19.446;2023-05-07T02:02:23;10.75;;;8.35;;
18853;SDS011;9556;49.374;19.446;2023-05-07T02:04:50;12.45;;;8.80;;
18853;SDS011;9556;49.374;19.446;2023-05-07T02:07:17;10.63;;;8.48;;
18853;SDS011;9556;49.374;19.446;2023-05-07T02:09:45;12.30;;;9.00;;
18853;SDS011;9556;49.374;19.446;2023-05-07T02:12:12;12.35;;;9.25;;
18853;SDS011;9556;49.374;19.446;2023-05-07T02:14:40;14.30;;;9.60;;
18853;SDS011;9556;49.374;19.446;2023-05-07T02:17:07;11.43;;;8.93;;
18853;SDS011;9556;49.374;19.446;2023-05-07T02:19:35;13.85;;;9.52;;
18853;SDS011;9556;49.374;19.446;2023-05-07T02:22:02;12.00;;;9.20;;
18853;SDS011;9556;49.374;19.446;2023-05-07T02:24:29;12.82;;;9.65;;
18853;SDS011;9556;49.374;19.446;2023-05-07T02:26:56;12.52;;;9.82;;
18853;SDS011;9556;49.374;19.446;2023-05-07T02:29:23;12.57;;;9.88;;
18853;SDS011;9556;49.374;19.446;2023-05-07T02:31:52;12.93;;;9.63;;
18853;SDS011;9556;49.374;19.446;2023-05-07T02:34:19;11.80;;;9.10;;
18853;SDS011;9556;49.374;19.446;2023-05-07T02:36:46;12.07;;;9.02;;
18853;SDS011;9556;49.374;19.446;2023-05-07T02:39:13;13.07;;;9.90;;
18853;SDS011;9556;49.374;19.446;2023-05-07T02:41:41;14.18;;;10.32;;
18853;SDS011;9556;49.374;19.446;2023-05-07T02:44:08;12.90;;;10.15;;
18853;SDS011;9556;49.374;19.446;2023-05-07T02:46:35;14.60;;;10.40;;
18853;SDS011;9556;49.374;19.446;2023-05-07T02:49:04;14.40;;;10.30;;
18853;SDS011;9556;49.374;19.446;2023-05-07T02:51:31;17.38;;;13.00;;
18853;SDS011;9556;49.374;19.446;2023-05-07T02:53:58;14.32;;;10.60;;
18853;SDS011;9556;49.374;19.446;2023-05-07T02:56:26;12.43;;;9.60;;
18853;SDS011;9556;49.374;19.446;2023-05-07T02:58:53;13.48;;;10.23;;
18853;SDS011;9556;49.374;19.446;2023-05-07T03:01:20;17.80;;;10.45;;
18853;SDS011;9556;49.374;19.446;2023-05-07T03:03:47;15.15;;;10.43;;
18853;SDS011;9556;49.374;19.446;2023-05-07T03:06:16;12.75;;;9.85;;
18853;SDS011;9556;49.374;19.446;2023-05-07T03:08:43;14.02;;;9.90;;
18853;SDS011;9556;49.374;19.446;2023-05-07T03:11:10;13.32;;;9.95;;
18853;SDS011;9556;49.374;19.446;2023-05-07T03:13:38;15.05;;;9.48;;
18853;SDS011;9556;49.374;19.446;2023-05-07T03:16:05;15.88;;;10.02;;
18853;SDS011;9556;49.374;19.446;2023-05-07T03:18:32;13.55;;;9.80;;
18853;SDS011;9556;49.374;19.446;2023-05-07T03:20:59;46.05;;;11.45;;
18853;SDS011;9556;49.374;19.446;2023-05-07T03:23:28;13.73;;;9.07;;
18853;SDS011;9556;49.374;19.446;2023-05-07T03:25:55;11.90;;;8.50;;
18853;SDS011;9556;49.374;19.446;2023-05-07T03:28:22;13.98;;;8.63;;
18853;SDS011;9556;49.374;19.446;2023-05-07T03:30:49;12.63;;;9.45;;
18853;SDS011;9556;49.374;19.446;2023-05-07T03:33:16;13.15;;;8.82;;
18853;SDS011;9556;49.374;19.446;2023-05-07T03:35:44;12.65;;;8.88;;
18853;SDS011;9556;49.374;19.446;2023-05-07T03:38:11;12.90;;;8.88;;
18853;SDS011;9556;49.374;19.446;2023-05-07T03:40:39;11.02;;;8.45;;
18853;SDS011;9556;49.374;19.446;2023-05-07T03:43:06;12.30;;;8.75;;
18853;SDS011;9556;49.374;19.446;2023-05-07T03:45:34;11.55;;;8.65;;
18853;SDS011;9556;49.374;19.446;2023-05-07T03:48:01;10.25;;;7.90;;
18853;SDS011;9556;49.374;19.446;2023-05-07T03:50:28;10.77;;;8.30;;
18853;SDS011;9556;49.374;19.446;2023-05-07T03:52:55;12.23;;;9.05;;
18853;SDS011;9556;49.374;19.446;2023-05-07T03:55:22;10.93;;;7.93;;
18853;SDS011;9556;49.374;19.446;2023-05-07T03:57:51;10.77;;;8.35;;
18853;SDS011;9556;49.374;19.446;2023-05-07T04:00:18;12.32;;;8.73;;
18853;SDS011;9556;49.374;19.446;2023-05-07T04:02:46;11.43;;;8.52;;
18853;SDS011;9556;49.374;19.446;2023-05-07T04:05:13;11.73;;;8.43;;
18853;SDS011;9556;49.374;19.446;2023-05-07T04:07:41;10.25;;;8.00;;
18853;SDS011;9556;49.374;19.446;2023-05-07T04:10:09;10.90;;;8.52;;
18853;SDS011;9556;49.374;19.446;2023-05-07T04:12:38;11.27;;;8.25;;
18853;SDS011;9556;49.374;19.446;2023-05-07T04:15:07;11.77;;;8.55;;
18853;SDS011;9556;49.374;19.446;2023-05-07T04:17:34;11.13;;;8.30;;
18853;SDS011;9556;49.374;19.446;2023-05-07T04:20:02;10.43;;;8.15;;
18853;SDS011;9556;49.374;19.446;2023-05-07T04:22:29;12.73;;;8.98;;
18853;SDS011;9556;49.374;19.446;2023-05-07T04:24:56;11.85;;;8.63;;
18853;SDS011;9556;49.374;19.446;2023-05-07T04:27:23;10.30;;;7.40;;
18853;SDS011;9556;49.374;19.446;2023-05-07T04:29:51;11.50;;;8.10;;
18853;SDS011;9556;49.374;19.446;2023-05-07T04:32:22;10.57;;;7.75;;
18853;SDS011;9556;49.374;19.446;2023-05-07T04:34:50;11.32;;;7.53;;
18853;SDS011;9556;49.374;19.446;2023-05-07T04:37:17;9.77;;;7.20;;
18853;SDS011;9556;49.374;19.446;2023-05-07T04:39:44;10.68;;;7.53;;
18853;SDS011;9556;49.374;19.446;2023-05-07T04:42:14;9.93;;;7.43;;
18853;SDS011;9556;49.374;19.446;2023-05-07T04:44:41;9.52;;;7.30;;
18853;SDS011;9556;49.374;19.446;2023-05-07T04:47:08;9.07;;;7.10;;
18853;SDS011;9556;49.374;19.446;2023-05-07T04:49:37;9.65;;;6.65;;
18853;SDS011;9556;49.374;19.446;2023-05-07T04:52:04;8.40;;;6.30;;
18853;SDS011;9556;49.374;19.446;2023-05-07T04:54:31;8.02;;;6.18;;
18853;SDS011;9556;49.374;19.446;2023-05-07T04:56:58;8.25;;;6.07;;
18853;SDS011;9556;49.374;19.446;2023-05-07T04:59:26;8.77;;;5.70;;
18853;SDS011;9556;49.374;19.446;2023-05-07T05:01:53;7.90;;;5.68;;
18853;SDS011;9556;49.374;19.446;2023-05-07T05:04:20;7.32;;;5.10;;
18853;SDS011;9556;49.374;19.446;2023-05-07T05:06:48;7.38;;;4.93;;
18853;SDS011;9556;49.374;19.446;2023-05-07T05:09:16;6.55;;;4.82;;
18853;SDS011;9556;49.374;19.446;2023-05-07T05:11:43;5.60;;;4.47;;
18853;SDS011;9556;49.374;19.446;2023-05-07T05:14:10;6.18;;;4.50;;
18853;SDS011;9556;49.374;19.446;2023-05-07T05:16:37;5.25;;;4.47;;
18853;SDS011;9556;49.374;19.446;2023-05-07T05:19:04;6.10;;;4.60;;
18853;SDS011;9556;49.374;19.446;2023-05-07T05:21:31;6.60;;;4.70;;
18853;SDS011;9556;49.374;19.446;2023-05-07T05:24:00;5.18;;;4.25;;
18853;SDS011;9556;49.374;19.446;2023-05-07T05:26:27;7.05;;;4.63;;
18853;SDS011;9556;49.374;19.446;2023-05-07T05:28:54;5.60;;;4.50;;
18853;SDS011;9556;49.374;19.446;2023-05-07T05:31:21;5.40;;;4.40;;
18853;SDS011;9556;49.374;19.446;2023-05-07T05:33:49;7.35;;;5.03;;
18853;SDS011;9556;49.374;19.446;2023-05-07T05:36:16;5.45;;;4.43;;
18853;SDS011;9556;49.374;19.446;2023-05-07T05:38:43;7.00;;;4.72;;
18853;SDS011;9556;49.374;19.446;2023-05-07T05:41:12;9.45;;;4.78;;
18853;SDS011;9556;49.374;19.446;2023-05-07T05:43:39;10.63;;;4.50;;
18853;SDS011;9556;49.374;19.446;2023-05-07T05:46:06;14.82;;;4.50;;
18853;SDS011;9556;49.374;19.446;2023-05-07T05:48:36;7.03;;;4.35;;
18853;SDS011;9556;49.374;19.446;2023-05-07T05:51:03;12.68;;;4.45;;
18853;SDS011;9556;49.374;19.446;2023-05-07T05:53:30;9.10;;;4.22;;
18853;SDS011;9556;49.374;19.446;2023-05-07T05:55:57;16.67;;;4.13;;
18853;SDS011;9556;49.374;19.446;2023-05-07T05:58:26;6.50;;;4.30;;
18853;SDS011;9556;49.374;19.446;2023-05-07T06:00:53;10.35;;;3.95;;
18853;SDS011;9556;49.374;19.446;2023-05-07T06:03:21;8.02;;;3.70;;
18853;SDS011;9556;49.374;19.446;2023-05-07T06:05:48;5.97;;;4.20;;
18853;SDS011;9556;49.374;19.446;2023-05-07T06:08:15;7.20;;;4.32;;
18853;SDS011;9556;49.374;19.446;2023-05-07T06:10:43;9.55;;;5.13;;
18853;SDS011;9556;49.374;19.446;2023-05-07T06:13:10;9.30;;;4.57;;
18853;SDS011;9556;49.374;19.446;2023-05-07T06:15:39;9.18;;;4.65;;
18853;SDS011;9556;49.374;19.446;2023-05-07T06:18:06;8.63;;;4.30;;
18853;SDS011;9556;49.374;19.446;2023-05-07T06:20:33;10.60;;;4.05;;
18853;SDS011;9556;49.374;19.446;2023-05-07T06:23:00;10.73;;;4.32;;
18853;SDS011;9556;49.374;19.446;2023-05-07T06:25:28;13.05;;;4.30;;
18853;SDS011;9556;49.374;19.446;2023-05-07T06:27:55;11.25;;;3.92;;
18853;SDS011;9556;49.374;19.446;2023-05-07T06:30:22;14.68;;;4.22;;
18853;SDS011;9556;49.374;19.446;2023-05-07T06:32:50;8.38;;;3.90;;
18853;SDS011;9556;49.374;19.446;2023-05-07T06:35:18;7.30;;;3.80;;
18853;SDS011;9556;49.374;19.446;2023-05-07T06:37:45;8.32;;;3.72;;
18853;SDS011;9556;49.374;19.446;2023-05-07T06:40:12;6.38;;;3.50;;
18853;SDS011;9556;49.374;19.446;2023-05-07T06:42:39;7.65;;;3.40;;
18853;SDS011;9556;49.374;19.446;2023-05-07T06:45:07;5.55;;;3.47;;
18853;SDS011;9556;49.374;19.446;2023-05-07T06:47:35;11.30;;;3.35;;
18853;SDS011;9556;49.374;19.446;2023-05-07T06:50:03;8.93;;;3.97;;
18853;SDS011;9556;49.374;19.446;2023-05-07T06:52:31;6.35;;;3.67;;
18853;SDS011;9556;49.374;19.446;2023-05-07T06:54:58;7.47;;;3.35;;
18853;SDS011;9556;49.374;19.446;2023-05-07T06:57:25;12.57;;;3.63;;
18853;SDS011;9556;49.374;19.446;2023-05-07T06:59:52;6.28;;;3.47;;
18853;SDS011;9556;49.374;19.446;2023-05-07T07:02:19;7.03;;;3.35;;
18853;SDS011;9556;49.374;19.446;2023-05-07T07:04:46;5.65;;;3.28;;
18853;SDS011;9556;49.374;19.446;2023-05-07T07:07:15;8.30;;;3.78;;
18853;SDS011;9556;49.374;19.446;2023-05-07T07:09:42;5.70;;;3.30;;
18853;SDS011;9556;49.374;19.446;2023-05-07T07:12:10;4.60;;;3.13;;
18853;SDS011;9556;49.374;19.446;2023-05-07T07:14:37;6.75;;;3.25;;
18853;SDS011;9556;49.374;19.446;2023-05-07T07:17:04;4.32;;;3.10;;
18853;SDS011;9556;49.374;19.446;2023-05-07T07:19:31;5.60;;;3.15;;
18853;SDS011;9556;49.374;19.446;2023-05-07T07:21:58;3.60;;;2.70;;
18853;SDS011;9556;49.374;19.446;2023-05-07T07:24:27;4.07;;;2.65;;
18853;SDS011;9556;49.374;19.446;2023-05-07T07:26:54;5.20;;;3.20;;
18853;SDS011;9556;49.374;19.446;2023-05-07T07:29:21;6.68;;;3.13;;
18853;SDS011;9556;49.374;19.446;2023-05-07T07:31:51;5.78;;;3.13;;
18853;SDS011;9556;49.374;19.446;2023-05-07T07:34:18;6.43;;;3.60;;
18853;SDS011;9556;49.374;19.446;2023-05-07T07:36:46;5.10;;;3.25;;
18853;SDS011;9556;49.374;19.446;2023-05-07T07:39:13;9.98;;;3.88;;
18853;SDS011;9556;49.374;19.446;2023-05-07T07:41:42;6.82;;;3.58;;
18853;SDS011;9556;49.374;19.446;2023-05-07T07:44:09;7.10;;;4.00;;
18853;SDS011;9556;49.374;19.446;2023-05-07T07:46:38;8.10;;;3.75;;
18853;SDS011;9556;49.374;19.446;2023-05-07T07:49:05;8.23;;;4.22;;
18853;SDS011;9556;49.374;19.446;2023-05-07T07:51:32;5.38;;;3.90;;
18853;SDS011;9556;49.374;19.446;2023-05-07T07:53:59;8.20;;;4.47;;
18853;SDS011;9556;49.374;19.446;2023-05-07T07:56:27;8.32;;;4.57;;
18853;SDS011;9556;49.374;19.446;2023-05-07T07:58:56;8.35;;;3.97;;
18853;SDS011;9556;49.374;19.446;2023-05-07T08:01:23;6.53;;;4.10;;
18853;SDS011;9556;49.374;19.446;2023-05-07T08:03:51;8.85;;;4.00;;
18853;SDS011;9556;49.374;19.446;2023-05-07T08:06:18;8.27;;;4.05;;
18853;SDS011;9556;49.374;19.446;2023-05-07T08:08:45;6.03;;;4.20;;
18853;SDS011;9556;49.374;19.446;2023-05-07T08:11:12;6.57;;;4.07;;
18853;SDS011;9556;49.374;19.446;2023-05-07T08:13:40;13.13;;;6.25;;
18853;SDS011;9556;49.374;19.446;2023-05-07T08:16:08;20.17;;;11.18;;
18853;SDS011;9556;49.374;19.446;2023-05-07T08:18:35;9.00;;;5.03;;
18853;SDS011;9556;49.374;19.446;2023-05-07T08:21:03;13.05;;;8.60;;
18853;SDS011;9556;49.374;19.446;2023-05-07T08:23:30;8.65;;;4.50;;
18853;SDS011;9556;49.374;19.446;2023-05-07T08:25:59;17.58;;;9.60;;
18853;SDS011;9556;49.374;19.446;2023-05-07T08:28:26;25.55;;;17.17;;
18853;SDS011;9556;49.374;19.446;2023-05-07T08:30:53;8.82;;;5.47;;
18853;SDS011;9556;49.374;19.446;2023-05-07T08:33:22;8.98;;;5.03;;
18853;SDS011;9556;49.374;19.446;2023-05-07T08:35:50;8.80;;;5.70;;
18853;SDS011;9556;49.374;19.446;2023-05-07T08:38:17;8.35;;;5.68;;
18853;SDS011;9556;49.374;19.446;2023-05-07T08:40:44;9.40;;;6.30;;
18853;SDS011;9556;49.374;19.446;2023-05-07T08:43:12;7.57;;;4.38;;
18853;SDS011;9556;49.374;19.446;2023-05-07T08:45:40;13.35;;;6.30;;
18853;SDS011;9556;49.374;19.446;2023-05-07T08:48:08;9.45;;;5.35;;
18853;SDS011;9556;49.374;19.446;2023-05-07T08:50:37;16.88;;;7.10;;
18853;SDS011;9556;49.374;19.446;2023-05-07T08:53:04;5.78;;;3.80;;
18853;SDS011;9556;49.374;19.446;2023-05-07T08:55:32;5.40;;;3.92;;
18853;SDS011;9556;49.374;19.446;2023-05-07T08:57:59;5.47;;;3.78;;
18853;SDS011;9556;49.374;19.446;2023-05-07T09:00:26;8.07;;;4.90;;
18853;SDS011;9556;49.374;19.446;2023-05-07T09:02:54;6.93;;;4.20;;
18853;SDS011;9556;49.374;19.446;2023-05-07T09:05:21;6.35;;;4.28;;
18853;SDS011;9556;49.374;19.446;2023-05-07T09:07:49;7.75;;;4.00;;
18853;SDS011;9556;49.374;19.446;2023-05-07T09:10:17;6.88;;;4.85;;
18853;SDS011;9556;49.374;19.446;2023-05-07T09:12:44;12.90;;;8.40;;
18853;SDS011;9556;49.374;19.446;2023-05-07T09:15:13;18.50;;;10.57;;
18853;SDS011;9556;49.374;19.446;2023-05-07T09:17:40;18.27;;;11.70;;
18853;SDS011;9556;49.374;19.446;2023-05-07T09:20:08;58.45;;;33.08;;
18853;SDS011;9556;49.374;19.446;2023-05-07T09:22:36;19.83;;;10.05;;
18853;SDS011;9556;49.374;19.446;2023-05-07T09:25:05;9.70;;;5.82;;
18853;SDS011;9556;49.374;19.446;2023-05-07T09:27:32;8.43;;;6.00;;
18853;SDS011;9556;49.374;19.446;2023-05-07T09:30:02;7.78;;;6.00;;
18853;SDS011;9556;49.374;19.446;2023-05-07T09:32:33;11.70;;;5.00;;
18853;SDS011;9556;49.374;19.446;2023-05-07T09:35:01;7.05;;;5.00;;
18853;SDS011;9556;49.374;19.446;2023-05-07T09:37:28;12.57;;;8.52;;
18853;SDS011;9556;49.374;19.446;2023-05-07T09:39:57;26.40;;;16.40;;
18853;SDS011;9556;49.374;19.446;2023-05-07T09:42:26;9.80;;;6.07;;
18853;SDS011;9556;49.374;19.446;2023-05-07T09:44:53;14.75;;;10.35;;
18853;SDS011;9556;49.374;19.446;2023-05-07T09:47:20;9.30;;;6.78;;
18853;SDS011;9556;49.374;19.446;2023-05-07T09:49:50;8.57;;;5.05;;
18853;SDS011;9556;49.374;19.446;2023-05-07T09:52:20;6.70;;;5.10;;
18853;SDS011;9556;49.374;19.446;2023-05-07T09:54:48;7.90;;;4.90;;
18853;SDS011;9556;49.374;19.446;2023-05-07T09:57:17;6.15;;;4.90;;
18853;SDS011;9556;49.374;19.446;2023-05-07T09:59:47;5.43;;;4.57;;
18853;SDS011;9556;49.374;19.446;2023-05-07T10:02:16;7.00;;;4.25;;
18853;SDS011;9556;49.374;19.446;2023-05-07T10:04:44;5.18;;;3.90;;
18853;SDS011;9556;49.374;19.446;2023-05-07T10:07:13;8.10;;;4.10;;
18853;SDS011;9556;49.374;19.446;2023-05-07T10:09:40;8.77;;;4.00;;
18853;SDS011;9556;49.374;19.446;2023-05-07T10:12:08;6.72;;;4.00;;
18853;SDS011;9556;49.374;19.446;2023-05-07T10:14:36;5.72;;;4.00;;
18853;SDS011;9556;49.374;19.446;2023-05-07T10:17:05;6.25;;;3.78;;
18853;SDS011;9556;49.374;19.446;2023-05-07T10:19:32;5.05;;;3.70;;
18853;SDS011;9556;49.374;19.446;2023-05-07T10:22:02;7.85;;;3.60;;
18853;SDS011;9556;49.374;19.446;2023-05-07T10:24:31;6.82;;;3.10;;
18853;SDS011;9556;49.374;19.446;2023-05-07T10:26:59;5.65;;;2.90;;
18853;SDS011;9556;49.374;19.446;2023-05-07T10:29:29;10.30;;;3.00;;
18853;SDS011;9556;49.374;19.446;2023-05-07T10:32:02;5.28;;;2.95;;
18853;SDS011;9556;49.374;19.446;2023-05-07T10:34:36;3.95;;;2.75;;
18853;SDS011;9556;49.374;19.446;2023-05-07T10:37:04;5.65;;;2.90;;
18853;SDS011;9556;49.374;19.446;2023-05-07T10:39:32;4.22;;;2.85;;
18853;SDS011;9556;49.374;19.446;2023-05-07T10:42:07;3.15;;;2.47;;
18853;SDS011;9556;49.374;19.446;2023-05-07T10:44:34;5.20;;;3.20;;
18853;SDS011;9556;49.374;19.446;2023-05-07T10:47:06;4.15;;;2.40;;
18853;SDS011;9556;49.374;19.446;2023-05-07T10:49:35;3.83;;;2.40;;
18853;SDS011;9556;49.374;19.446;2023-05-07T10:52:15;4.50;;;3.15;;
18853;SDS011;9556;49.374;19.446;2023-05-07T10:54:43;7.88;;;5.45;;
18853;SDS011;9556;49.374;19.446;2023-05-07T10:59:56;25.95;;;15.52;;
18853;SDS011;9556;49.374;19.446;2023-05-07T11:02:23;15.43;;;10.10;;
18853;SDS011;9556;49.374;19.446;2023-05-07T11:05:21;23.27;;;12.13;;
18853;SDS011;9556;49.374;19.446;2023-05-07T11:07:53;6.43;;;4.32;;
18853;SDS011;9556;49.374;19.446;2023-05-07T11:10:21;11.30;;;6.30;;
18853;SDS011;9556;49.374;19.446;2023-05-07T11:12:55;9.50;;;6.32;;
18853;SDS011;9556;49.374;19.446;2023-05-07T11:15:42;7.47;;;5.07;;
18853;SDS011;9556;49.374;19.446;2023-05-07T11:18:10;7.88;;;3.15;;
18853;SDS011;9556;49.374;19.446;2023-05-07T11:20:49;10.70;;;5.63;;
18853;SDS011;9556;49.374;19.446;2023-05-07T11:26:06;8.50;;;5.20;;
18853;SDS011;9556;49.374;19.446;2023-05-07T11:28:36;13.13;;;5.03;;
18853;SDS011;9556;49.374;19.446;2023-05-07T11:31:04;18.38;;;8.70;;
18853;SDS011;9556;49.374;19.446;2023-05-07T11:33:31;8.25;;;3.72;;
18853;SDS011;9556;49.374;19.446;2023-05-07T11:36:00;14.40;;;4.63;;
18853;SDS011;9556;49.374;19.446;2023-05-07T11:38:33;14.80;;;8.63;;
18853;SDS011;9556;49.374;19.446;2023-05-07T11:41:03;18.65;;;9.77;;
18853;SDS011;9556;49.374;19.446;2023-05-07T11:43:53;6.50;;;4.22;;
18853;SDS011;9556;49.374;19.446;2023-05-07T11:46:21;8.82;;;5.20;;
18853;SDS011;9556;49.374;19.446;2023-05-07T11:48:52;5.90;;;3.25;;
18853;SDS011;9556;49.374;19.446;2023-05-07T11:51:47;15.98;;;7.28;;
18853;SDS011;9556;49.374;19.446;2023-05-07T11:54:20;45.40;;;19.30;;
18853;SDS011;9556;49.374;19.446;2023-05-07T11:56:50;18.77;;;8.77;;
18853;SDS011;9556;49.374;19.446;2023-05-07T11:59:30;59.40;;;22.27;;
18853;SDS011;9556;49.374;19.446;2023-05-07T12:02:05;55.78;;;24.65;;
18853;SDS011;9556;49.374;19.446;2023-05-07T12:04:32;44.85;;;21.83;;
18853;SDS011;9556;49.374;19.446;2023-05-07T12:07:01;32.13;;;19.92;;
18853;SDS011;9556;49.374;19.446;2023-05-07T12:09:28;17.80;;;12.93;;
18853;SDS011;9556;49.374;19.446;2023-05-07T12:11:55;17.17;;;9.20;;
18853;SDS011;9556;49.374;19.446;2023-05-07T12:14:26;22.27;;;15.13;;
18853;SDS011;9556;49.374;19.446;2023-05-07T12:16:54;12.68;;;8.20;;
18853;SDS011;9556;49.374;19.446;2023-05-07T12:19:22;8.15;;;5.38;;
18853;SDS011;9556;49.374;19.446;2023-05-07T12:21:49;10.48;;;6.55;;
18853;SDS011;9556;49.374;19.446;2023-05-07T12:24:18;13.13;;;6.93;;
18853;SDS011;9556;49.374;19.446;2023-05-07T12:26:46;11.00;;;7.82;;
18853;SDS011;9556;49.374;19.446;2023-05-07T12:29:13;8.60;;;5.65;;
18853;SDS011;9556;49.374;19.446;2023-05-07T12:31:41;11.52;;;7.80;;
18853;SDS011;9556;49.374;19.446;2023-05-07T12:34:08;8.13;;;4.35;;
18853;SDS011;9556;49.374;19.446;2023-05-07T12:36:37;6.82;;;3.70;;
18853;SDS011;9556;49.374;19.446;2023-05-07T12:39:05;10.65;;;7.20;;
18853;SDS011;9556;49.374;19.446;2023-05-07T12:41:43;14.82;;;7.53;;
18853;SDS011;9556;49.374;19.446;2023-05-07T12:44:19;5.00;;;3.58;;
18853;SDS011;9556;49.374;19.446;2023-05-07T12:46:46;10.50;;;6.63;;
18853;SDS011;9556;49.374;19.446;2023-05-07T12:49:13;11.02;;;5.00;;
18853;SDS011;9556;49.374;19.446;2023-05-07T12:51:40;12.55;;;7.63;;
18853;SDS011;9556;49.374;19.446;2023-05-07T12:54:08;6.95;;;4.18;;
18853;SDS011;9556;49.374;19.446;2023-05-07T12:56:36;21.65;;;11.30;;
18853;SDS011;9556;49.374;19.446;2023-05-07T12:59:04;14.68;;;6.68;;
18853;SDS011;9556;49.374;19.446;2023-05-07T13:01:31;7.57;;;3.75;;
18853;SDS011;9556;49.374;19.446;2023-05-07T13:04:01;8.00;;;5.43;;
18853;SDS011;9556;49.374;19.446;2023-05-07T13:06:30;6.10;;;4.25;;
18853;SDS011;9556;49.374;19.446;2023-05-07T13:08:57;6.10;;;3.72;;
18853;SDS011;9556;49.374;19.446;2023-05-07T13:11:25;4.68;;;3.15;;
18853;SDS011;9556;49.374;19.446;2023-05-07T13:13:53;6.47;;;2.90;;
18853;SDS011;9556;49.374;19.446;2023-05-07T13:16:22;6.00;;;3.45;;
18853;SDS011;9556;49.374;19.446;2023-05-07T13:18:49;4.50;;;2.97;;
18853;SDS011;9556;49.374;19.446;2023-05-07T13:21:16;3.90;;;3.10;;
18853;SDS011;9556;49.374;19.446;2023-05-07T13:23:43;7.80;;;5.53;;
18853;SDS011;9556;49.374;19.446;2023-05-07T13:26:11;7.18;;;5.43;;
18853;SDS011;9556;49.374;19.446;2023-05-07T13:28:38;3.47;;;2.80;;
18853;SDS011;9556;49.374;19.446;2023-05-07T13:31:06;8.23;;;6.05;;
18853;SDS011;9556;49.374;19.446;2023-05-07T13:33:34;4.13;;;3.25;;
18853;SDS011;9556;49.374;19.446;2023-05-07T13:36:01;6.00;;;3.20;;
18853;SDS011;9556;49.374;19.446;2023-05-07T13:38:29;5.35;;;3.42;;
18853;SDS011;9556;49.374;19.446;2023-05-07T13:40:57;6.90;;;4.10;;
18853;SDS011;9556;49.374;19.446;2023-05-07T13:43:24;7.50;;;5.00;;
18853;SDS011;9556;49.374;19.446;2023-05-07T13:45:51;8.23;;;6.30;;
18853;SDS011;9556;49.374;19.446;2023-05-07T13:48:20;5.45;;;3.97;;
18853;SDS011;9556;49.374;19.446;2023-05-07T13:50:47;4.13;;;3.17;;
18853;SDS011;9556;49.374;19.446;2023-05-07T13:53:14;5.57;;;3.30;;
18853;SDS011;9556;49.374;19.446;2023-05-07T13:55:43;4.78;;;2.83;;
18853;SDS011;9556;49.374;19.446;2023-05-07T13:58:10;4.40;;;3.50;;
18853;SDS011;9556;49.374;19.446;2023-05-07T14:00:37;5.50;;;3.60;;
18853;SDS011;9556;49.374;19.446;2023-05-07T14:03:05;4.93;;;3.20;;
18853;SDS011;9556;49.374;19.446;2023-05-07T14:05:33;4.85;;;3.35;;
18853;SDS011;9556;49.374;19.446;2023-05-07T14:08:00;4.75;;;3.42;;
18853;SDS011;9556;49.374;19.446;2023-05-07T14:10:29;4.40;;;3.22;;
18853;SDS011;9556;49.374;19.446;2023-05-07T14:12:56;4.60;;;3.00;;
18853;SDS011;9556;49.374;19.446;2023-05-07T14:15:24;4.30;;;2.90;;
18853;SDS011;9556;49.374;19.446;2023-05-07T14:17:51;4.78;;;3.17;;
18853;SDS011;9556;49.374;19.446;2023-05-07T14:20:18;4.07;;;3.42;;
18853;SDS011;9556;49.374;19.446;2023-05-07T14:22:47;4.28;;;3.30;;
18853;SDS011;9556;49.374;19.446;2023-05-07T14:25:14;4.68;;;3.20;;
18853;SDS011;9556;49.374;19.446;2023-05-07T14:27:41;5.15;;;3.53;;
18853;SDS011;9556;49.374;19.446;2023-05-07T14:30:09;4.60;;;3.47;;
18853;SDS011;9556;49.374;19.446;2023-05-07T14:32:36;5.28;;;3.58;;
18853;SDS011;9556;49.374;19.446;2023-05-07T14:35:04;4.63;;;3.03;;
18853;SDS011;9556;49.374;19.446;2023-05-07T14:37:31;4.07;;;3.10;;
18853;SDS011;9556;49.374;19.446;2023-05-07T14:40:00;5.32;;;3.65;;
18853;SDS011;9556;49.374;19.446;2023-05-07T14:42:27;4.38;;;3.47;;
18853;SDS011;9556;49.374;19.446;2023-05-07T14:44:54;4.50;;;3.33;;
18853;SDS011;9556;49.374;19.446;2023-05-07T14:47:21;4.25;;;3.10;;
18853;SDS011;9556;49.374;19.446;2023-05-07T14:49:49;4.35;;;3.35;;
18853;SDS011;9556;49.374;19.446;2023-05-07T14:52:16;5.68;;;3.60;;